createdAt,value
2017-11-26T00:00:10.355Z,74.16
2017-11-26T00:02:39.464Z,74.15
2017-11-26T00:05:07.769Z,73.88
2017-11-26T00:07:36.073Z,73.95
2017-11-26T00:10:04.365Z,73.93
2017-11-26T00:12:32.668Z,73.74
2017-11-26T00:15:00.972Z,74.12
2017-11-26T00:17:30.063Z,74.43
2017-11-26T00:19:59.136Z,74.06
2017-11-26T00:22:27.422Z,74.23
2017-11-26T00:24:55.736Z,74.20
2017-11-26T00:27:24.075Z,74.26
2017-11-26T00:29:52.392Z,73.74
2017-11-26T00:32:20.693Z,73.63
2017-11-26T00:34:48.998Z,73.41
2017-11-26T00:37:17.311Z,73.22
2017-11-26T00:39:45.619Z,73.37
2017-11-26T00:42:14.694Z,73.31
2017-11-26T00:44:43.004Z,73.20
2017-11-26T00:47:12.069Z,72.80
2017-11-26T00:49:40.395Z,72.67
2017-11-26T00:52:08.708Z,72.40
2017-11-26T00:54:37.019Z,72.56
2017-11-26T00:57:05.317Z,72.15
2017-11-26T00:59:33.630Z,71.95
2017-11-26T01:02:01.948Z,71.58
2017-11-26T01:04:30.258Z,71.51
2017-11-26T01:06:58.575Z,71.24
2017-11-26T01:09:26.882Z,70.71
2017-11-26T01:11:55.184Z,70.68
2017-11-26T01:14:23.478Z,70.82
2017-11-26T01:16:51.810Z,70.90
2017-11-26T01:19:20.108Z,70.86
2017-11-26T01:21:48.430Z,70.68
2017-11-26T01:24:16.756Z,70.69
2017-11-26T01:26:45.062Z,70.80
2017-11-26T01:29:13.358Z,70.52
2017-11-26T01:31:41.672Z,70.83
2017-11-26T01:34:10.742Z,70.89
2017-11-26T01:36:39.057Z,71.07
2017-11-26T01:39:08.142Z,71.19
2017-11-26T01:41:37.122Z,71.07
2017-11-26T01:44:05.418Z,71.21
2017-11-26T01:46:33.722Z,71.28
2017-11-26T01:49:02.018Z,71.73
2017-11-26T01:51:30.315Z,71.42
2017-11-26T01:53:58.882Z,71.14
2017-11-26T01:56:27.172Z,71.38
2017-11-26T01:58:55.473Z,71.51
2017-11-26T02:01:23.926Z,71.33
2017-11-26T02:03:59.074Z,71.46
2017-11-26T02:06:27.360Z,72.45
2017-11-26T02:08:55.668Z,73.67
2017-11-26T02:11:23.983Z,74.45
2017-11-26T02:13:53.092Z,74.60
2017-11-26T02:16:22.184Z,75.07
2017-11-26T02:18:50.775Z,75.20
2017-11-26T02:21:19.853Z,75.37
2017-11-26T02:23:48.157Z,75.39
2017-11-26T02:26:17.222Z,75.42
2017-11-26T02:28:45.561Z,75.60
2017-11-26T02:31:31.718Z,75.63
2017-11-26T02:34:18.626Z,75.82
2017-11-26T02:36:47.698Z,75.78
2017-11-26T02:39:15.997Z,76.12
2017-11-26T02:41:44.310Z,76.15
2017-11-26T02:44:12.612Z,76.09
2017-11-26T02:46:40.913Z,75.91
2017-11-26T02:49:09.982Z,75.65
2017-11-26T02:51:38.365Z,75.33
2017-11-26T02:54:06.655Z,75.28
2017-11-26T02:56:34.973Z,75.13
2017-11-26T02:59:03.616Z,74.97
2017-11-26T03:01:31.913Z,74.84
2017-11-26T03:04:00.238Z,74.46
2017-11-26T03:06:28.545Z,74.21
2017-11-26T03:08:57.602Z,74.03
2017-11-26T03:11:25.900Z,73.95
2017-11-26T03:13:54.210Z,73.90
2017-11-26T03:16:22.518Z,73.70
2017-11-26T03:18:50.833Z,73.47
2017-11-26T03:21:19.166Z,73.44
2017-11-26T03:23:47.471Z,73.46
2017-11-26T03:26:15.813Z,74.29
2017-11-26T03:28:44.220Z,75.16
2017-11-26T03:31:12.609Z,75.50
2017-11-26T03:33:40.916Z,75.51
2017-11-26T03:36:09.226Z,76.07
2017-11-26T03:38:38.310Z,76.51
2017-11-26T03:41:06.615Z,77.10
2017-11-26T03:43:35.928Z,78.04
2017-11-26T03:46:05.007Z,78.52
2017-11-26T03:48:33.315Z,79.20
2017-11-26T03:51:01.609Z,79.57
2017-11-26T03:53:29.926Z,79.84
2017-11-26T03:55:58.232Z,80.10
2017-11-26T03:58:26.536Z,80.04
2017-11-26T04:00:54.844Z,80.20
2017-11-26T04:03:23.161Z,80.24
2017-11-26T04:05:51.474Z,80.21
2017-11-26T04:08:20.551Z,80.25
2017-11-26T04:10:49.194Z,80.07
2017-11-26T04:13:17.557Z,80.02
2017-11-26T04:15:45.860Z,80.02
2017-11-26T04:18:14.539Z,79.94
2017-11-26T04:20:42.849Z,80.14
2017-11-26T04:23:11.415Z,80.08
2017-11-26T04:25:39.718Z,80.08
2017-11-26T04:28:08.036Z,79.79
2017-11-26T04:30:37.357Z,79.15
2017-11-26T04:33:06.457Z,79.21
2017-11-26T04:35:34.774Z,79.29
2017-11-26T04:38:03.098Z,79.26
2017-11-26T04:40:31.732Z,79.06
2017-11-26T04:43:00.402Z,78.77
2017-11-26T04:45:28.771Z,78.48
2017-11-26T04:47:57.082Z,78.40
2017-11-26T04:50:25.408Z,78.33
2017-11-26T04:52:53.749Z,77.88
2017-11-26T04:55:22.061Z,77.75
2017-11-26T04:57:50.366Z,77.25
2017-11-26T05:00:18.679Z,77.27
2017-11-26T05:02:47.012Z,77.00
2017-11-26T05:05:15.331Z,76.60
2017-11-26T05:07:44.400Z,76.89
2017-11-26T05:10:12.709Z,76.66
2017-11-26T05:12:41.757Z,76.55
2017-11-26T05:15:10.069Z,76.15
2017-11-26T05:17:38.373Z,76.26
2017-11-26T05:20:07.496Z,76.45
2017-11-26T05:22:35.815Z,76.40
2017-11-26T05:25:04.122Z,75.55
2017-11-26T05:27:32.410Z,75.48
2017-11-26T05:30:01.477Z,75.42
2017-11-26T05:32:29.777Z,75.53
2017-11-26T05:34:58.069Z,75.51
2017-11-26T05:37:27.144Z,75.52
2017-11-26T05:39:55.446Z,75.48
2017-11-26T05:42:23.782Z,75.48
2017-11-26T05:44:52.085Z,75.27
2017-11-26T05:47:20.404Z,75.48
2017-11-26T05:49:49.465Z,75.35
2017-11-26T05:52:17.778Z,74.93
2017-11-26T05:54:46.875Z,74.57
2017-11-26T05:57:15.943Z,74.72
2017-11-26T05:59:44.245Z,74.65
2017-11-26T06:02:12.545Z,74.69
2017-11-26T06:04:41.625Z,74.27
2017-11-26T06:07:10.722Z,74.38
2017-11-26T06:09:39.045Z,74.44
2017-11-26T06:12:07.361Z,74.54
2017-11-26T06:14:35.687Z,74.29
2017-11-26T06:17:04.764Z,74.26
2017-11-26T06:19:33.058Z,74.09
2017-11-26T06:22:02.128Z,74.10
2017-11-26T06:24:30.416Z,74.13
2017-11-26T06:26:58.735Z,73.62
2017-11-26T06:29:27.024Z,73.69
2017-11-26T06:31:55.360Z,73.45
2017-11-26T06:34:23.653Z,73.42
2017-11-26T06:36:51.953Z,73.61
2017-11-26T06:39:21.021Z,73.92
2017-11-26T06:41:49.322Z,73.45
2017-11-26T06:44:17.633Z,73.56
2017-11-26T06:46:45.913Z,73.47
2017-11-26T06:49:14.230Z,73.25
2017-11-26T06:51:42.512Z,73.07
2017-11-26T06:54:10.807Z,73.14
2017-11-26T06:56:39.119Z,72.94
2017-11-26T06:59:08.176Z,73.21
2017-11-26T07:01:36.470Z,73.31
2017-11-26T07:04:04.776Z,73.47
2017-11-26T07:06:33.845Z,73.61
2017-11-26T07:09:03.010Z,73.85
2017-11-26T07:11:31.316Z,74.80
2017-11-26T07:13:59.663Z,76.43
2017-11-26T07:16:27.985Z,77.85
2017-11-26T07:18:56.306Z,78.85
2017-11-26T07:21:25.392Z,79.80
2017-11-26T07:23:53.720Z,80.33
2017-11-26T07:26:22.049Z,80.62
2017-11-26T07:28:50.349Z,80.98
2017-11-26T07:31:19.422Z,81.18
2017-11-26T07:33:47.743Z,81.31
2017-11-26T07:36:16.057Z,81.52
2017-11-26T07:38:44.532Z,81.58
2017-11-26T07:41:12.829Z,81.47
2017-11-26T07:43:41.170Z,81.48
2017-11-26T07:46:10.253Z,81.65
2017-11-26T07:48:39.323Z,81.25
2017-11-26T07:51:07.637Z,81.27
2017-11-26T07:53:35.964Z,81.68
2017-11-26T07:56:04.261Z,81.96
2017-11-26T07:58:32.594Z,82.02
2017-11-26T08:01:01.680Z,82.08
2017-11-26T08:03:30.833Z,82.21
2017-11-26T08:05:59.159Z,82.19
2017-11-26T08:08:27.488Z,82.33
2017-11-26T08:10:55.810Z,82.48
2017-11-26T08:13:24.110Z,82.56
2017-11-26T08:15:53.190Z,82.57
2017-11-26T08:18:21.518Z,82.36
2017-11-26T08:20:49.819Z,82.40
2017-11-26T08:23:18.125Z,82.49
2017-11-26T08:25:46.457Z,82.43
2017-11-26T08:28:14.754Z,82.38
2017-11-26T08:30:43.067Z,82.24
2017-11-26T08:33:11.386Z,82.07
2017-11-26T08:35:40.823Z,82.01
2017-11-26T08:38:09.192Z,82.09
2017-11-26T08:40:37.539Z,81.83
2017-11-26T08:43:06.648Z,81.61
2017-11-26T08:45:34.951Z,81.51
2017-11-26T08:48:03.299Z,81.25
2017-11-26T08:50:31.658Z,81.26
2017-11-26T08:52:59.964Z,80.93
2017-11-26T08:55:28.608Z,80.83
2017-11-26T08:57:56.911Z,80.51
2017-11-26T09:00:25.219Z,80.13
2017-11-26T09:02:53.637Z,79.75
2017-11-26T09:05:21.949Z,79.26
2017-11-26T09:07:53.266Z,78.62
2017-11-26T09:10:21.567Z,78.18
2017-11-26T09:12:49.896Z,77.62
2017-11-26T09:15:18.224Z,77.46
2017-11-26T09:17:46.538Z,77.10
2017-11-26T09:20:14.861Z,76.67
2017-11-26T09:22:43.924Z,76.12
2017-11-26T09:25:12.604Z,75.39
2017-11-26T09:27:40.954Z,75.06
2017-11-26T09:30:09.288Z,76.01
2017-11-26T09:32:37.922Z,77.21
2017-11-26T09:35:06.289Z,77.86
2017-11-26T09:37:35.472Z,78.39
2017-11-26T09:40:03.877Z,78.68
2017-11-26T09:42:33.015Z,79.19
2017-11-26T09:45:01.331Z,79.16
2017-11-26T09:47:29.689Z,78.75
2017-11-26T09:49:58.152Z,78.38
2017-11-26T09:52:26.460Z,77.94
2017-11-26T09:54:54.765Z,77.68
2017-11-26T09:57:23.102Z,77.76
2017-11-26T09:59:51.437Z,77.09
2017-11-26T10:02:19.749Z,76.25
2017-11-26T10:04:48.834Z,75.13
2017-11-26T10:07:17.226Z,75.18
2017-11-26T10:09:45.624Z,74.39
2017-11-26T10:12:13.950Z,73.23
2017-11-26T10:14:42.285Z,73.04
2017-11-26T10:17:10.589Z,72.51
2017-11-26T10:19:39.096Z,71.48
2017-11-26T10:22:07.454Z,71.08
2017-11-26T10:24:35.763Z,69.80
2017-11-26T10:27:04.071Z,69.07
2017-11-26T10:29:32.392Z,68.42
2017-11-26T10:32:00.714Z,67.51
2017-11-26T10:34:29.482Z,67.22
2017-11-26T10:39:25.469Z,66.26
2017-11-26T10:41:54.554Z,66.01
2017-11-26T10:44:22.844Z,65.80
2017-11-26T10:46:51.215Z,65.75
2017-11-26T10:49:19.511Z,66.31
2017-11-26T10:51:47.826Z,66.13
2017-11-26T10:54:16.138Z,66.63
2017-11-26T10:56:44.470Z,66.67
2017-11-26T10:59:13.528Z,66.67
2017-11-26T11:01:41.846Z,66.68
2017-11-26T11:04:10.913Z,66.38
2017-11-26T11:06:39.215Z,65.86
2017-11-26T11:09:07.537Z,66.65
2017-11-26T11:11:35.848Z,66.48
2017-11-26T11:14:04.168Z,66.11
2017-11-26T11:16:32.483Z,65.56
2017-11-26T11:19:00.808Z,65.29
2017-11-26T11:21:29.108Z,65.57
2017-11-26T11:24:01.798Z,66.70
2017-11-26T11:26:30.865Z,68.25
2017-11-26T11:28:59.192Z,69.01
2017-11-26T11:31:27.520Z,69.15
2017-11-26T11:33:56.590Z,68.65
2017-11-26T11:36:24.881Z,68.96
2017-11-26T11:38:55.915Z,71.19
2017-11-26T11:41:24.301Z,73.08
2017-11-26T11:43:52.612Z,74.09
2017-11-26T11:46:20.965Z,74.44
2017-11-26T11:48:50.492Z,74.52
2017-11-26T11:51:18.789Z,74.84
2017-11-26T11:53:47.123Z,75.25
2017-11-26T11:56:15.420Z,74.67
2017-11-26T11:58:43.725Z,74.39
2017-11-26T12:01:12.004Z,73.55
2017-11-26T12:03:40.305Z,72.86
2017-11-26T12:06:08.613Z,72.28
2017-11-26T12:08:37.729Z,71.11
2017-11-26T12:11:06.025Z,70.39
2017-11-26T12:13:34.361Z,70.17
2017-11-26T12:16:03.430Z,70.33
2017-11-26T12:18:31.719Z,70.17
2017-11-26T12:21:00.791Z,70.39
2017-11-26T12:23:29.080Z,71.47
2017-11-26T12:25:57.378Z,73.24
2017-11-26T12:28:26.452Z,74.16
2017-11-26T12:30:54.761Z,74.61
2017-11-26T12:33:23.156Z,75.92
2017-11-26T12:35:51.447Z,75.18
2017-11-26T12:38:19.760Z,74.15
2017-11-26T12:40:48.058Z,72.10
2017-11-26T12:43:16.400Z,71.84
2017-11-26T12:45:45.480Z,71.37
2017-11-26T12:48:13.773Z,70.22
2017-11-26T12:50:42.076Z,68.25
2017-11-26T12:53:10.397Z,68.81
2017-11-26T12:55:38.696Z,68.27
2017-11-26T12:58:06.991Z,67.91
2017-11-26T13:00:35.339Z,67.44
2017-11-26T13:03:03.633Z,67.75
2017-11-26T13:05:31.930Z,67.09
2017-11-26T13:08:00.241Z,64.46
2017-11-26T13:10:29.322Z,63.91
2017-11-26T13:15:30.594Z,63.80
2017-11-26T13:17:59.743Z,63.91
2017-11-26T13:20:28.243Z,64.42
2017-11-26T13:22:56.561Z,62.73
2017-11-26T13:25:24.909Z,63.34
2017-11-26T13:27:53.213Z,62.48
2017-11-26T13:30:22.375Z,62.61
2017-11-26T13:32:50.684Z,62.66
2017-11-26T13:35:19.003Z,62.79
2017-11-26T13:37:48.132Z,62.55
2017-11-26T13:40:16.508Z,62.84
2017-11-26T13:42:44.809Z,63.30
2017-11-26T13:45:13.142Z,63.33
2017-11-26T13:47:42.262Z,63.45
2017-11-26T13:50:10.580Z,63.60
2017-11-26T13:52:38.895Z,63.49
2017-11-26T13:55:07.988Z,63.27
2017-11-26T13:57:37.142Z,63.47
2017-11-26T14:00:05.467Z,63.10
2017-11-26T14:02:33.777Z,64.70
2017-11-26T14:05:02.894Z,64.62
2017-11-26T14:07:31.196Z,64.51
2017-11-26T14:09:59.510Z,64.81
2017-11-26T14:12:28.087Z,64.36
2017-11-26T14:14:56.416Z,64.21
2017-11-26T14:17:26.246Z,64.21
2017-11-26T14:19:54.554Z,64.71
2017-11-26T14:22:22.855Z,65.61
2017-11-26T14:24:51.174Z,65.26
2017-11-26T14:27:19.492Z,64.51
2017-11-26T14:29:47.788Z,64.71
2017-11-26T14:32:16.965Z,64.52
2017-11-26T14:34:45.267Z,64.64
2017-11-26T14:37:13.663Z,65.69
2017-11-26T14:39:42.065Z,66.46
2017-11-26T14:42:10.420Z,66.66
2017-11-26T14:44:39.494Z,69.27
2017-11-26T14:47:07.808Z,71.40
2017-11-26T14:49:36.128Z,72.32
2017-11-26T14:55:41.468Z,74.67
2017-11-26T14:58:09.772Z,76.20
2017-11-26T15:00:38.919Z,81.05
2017-11-26T15:03:07.281Z,79.54
2017-11-26T15:05:35.629Z,77.99
2017-11-26T15:08:04.078Z,77.90
2017-11-26T15:10:32.431Z,77.37
2017-11-26T15:13:00.742Z,76.84
2017-11-26T15:15:29.068Z,77.17
2017-11-26T15:17:58.163Z,77.14
2017-11-26T15:20:27.276Z,75.87
2017-11-26T15:22:55.596Z,75.36
2017-11-26T15:25:24.089Z,75.79
2017-11-26T15:27:52.424Z,76.70
2017-11-26T15:30:20.722Z,75.55
2017-11-26T15:32:49.074Z,75.72
2017-11-26T15:35:18.766Z,75.39
2017-11-26T15:37:47.296Z,76.08
2017-11-26T15:40:15.667Z,75.20
2017-11-26T15:42:44.037Z,75.51
2017-11-26T15:45:13.269Z,76.30
2017-11-26T15:47:41.697Z,77.81
2017-11-26T15:50:11.521Z,79.44
2017-11-26T15:52:39.855Z,80.75
2017-11-26T15:55:08.168Z,81.51
2017-11-26T15:57:36.498Z,82.01
2017-11-26T16:00:04.798Z,82.59
2017-11-26T16:02:34.771Z,82.97
2017-11-26T16:05:03.879Z,83.10
2017-11-26T16:07:33.000Z,83.87
2017-11-26T16:10:01.297Z,84.48
2017-11-26T16:12:29.620Z,84.51
2017-11-26T16:14:58.095Z,84.44
2017-11-26T16:17:26.474Z,83.93
2017-11-26T16:19:56.181Z,84.34
2017-11-26T16:22:24.491Z,84.42
2017-11-26T16:24:53.616Z,84.14
2017-11-26T16:27:21.923Z,84.59
2017-11-26T16:29:50.235Z,84.31
2017-11-26T16:32:18.666Z,84.79
2017-11-26T16:34:46.981Z,84.85
2017-11-26T16:37:15.281Z,85.47
2017-11-26T16:39:43.588Z,85.25
2017-11-26T16:42:12.707Z,84.79
2017-11-26T16:44:41.063Z,84.59
2017-11-26T16:47:10.153Z,84.19
2017-11-26T16:49:39.217Z,84.29
2017-11-26T16:52:07.511Z,83.88
2017-11-26T16:54:37.370Z,83.68
2017-11-26T16:57:05.685Z,83.67
2017-11-26T16:59:33.997Z,83.32
2017-11-26T17:02:02.317Z,83.29
2017-11-26T17:04:30.643Z,83.57
2017-11-26T17:06:58.958Z,83.34
2017-11-26T17:09:28.245Z,83.83
2017-11-26T17:11:56.566Z,83.95
2017-11-26T17:14:24.884Z,83.64
2017-11-26T17:16:59.954Z,84.28
2017-11-26T17:19:28.284Z,84.67
2017-11-26T17:21:57.463Z,84.93
2017-11-26T17:24:25.933Z,84.50
2017-11-26T17:26:54.265Z,84.54
2017-11-26T17:29:22.820Z,84.61
2017-11-26T17:31:51.148Z,84.20
2017-11-26T17:34:19.449Z,83.91
2017-11-26T17:36:48.520Z,82.93
2017-11-26T17:39:16.812Z,82.48
2017-11-26T17:41:45.183Z,82.00
2017-11-26T17:44:13.547Z,81.32
2017-11-26T17:46:41.947Z,81.54
2017-11-26T17:49:11.229Z,81.06
2017-11-26T17:51:39.538Z,81.25
2017-11-26T17:54:08.597Z,80.29
2017-11-26T17:56:37.699Z,79.85
2017-11-26T17:59:06.036Z,80.90
2017-11-26T18:01:35.115Z,81.59
2017-11-26T18:04:04.972Z,82.06
2017-11-26T18:06:33.355Z,81.99
2017-11-26T18:09:01.801Z,80.75
2017-11-26T18:11:30.311Z,79.96
2017-11-26T18:13:58.639Z,80.60
2017-11-26T18:16:26.970Z,81.65
2017-11-26T18:18:55.301Z,82.13
2017-11-26T18:21:23.592Z,82.45
2017-11-26T18:23:51.934Z,82.48
2017-11-26T18:26:20.254Z,82.98
2017-11-26T18:28:48.578Z,83.38
2017-11-26T18:31:17.651Z,82.76
2017-11-26T18:33:46.732Z,82.09
2017-11-26T18:36:15.063Z,81.37
2017-11-26T18:38:43.393Z,81.09
2017-11-26T18:41:12.461Z,80.94
2017-11-26T18:43:40.778Z,82.03
2017-11-26T18:46:09.705Z,83.02
2017-11-26T18:48:38.010Z,83.67
2017-11-26T18:51:06.302Z,84.11
2017-11-26T18:53:34.605Z,84.14
2017-11-26T18:56:02.948Z,84.71
2017-11-26T18:58:31.279Z,85.35
2017-11-26T19:01:00.373Z,85.76
2017-11-26T19:03:28.726Z,85.94
2017-11-26T19:05:57.026Z,86.07
2017-11-26T19:08:25.399Z,86.29
2017-11-26T19:10:53.825Z,86.40
2017-11-26T19:13:22.906Z,86.98
2017-11-26T19:15:51.248Z,87.04
2017-11-26T19:18:19.750Z,86.98
2017-11-26T19:20:48.079Z,86.97
2017-11-26T19:23:17.152Z,86.63
2017-11-26T19:25:46.239Z,87.01
2017-11-26T19:28:14.760Z,86.68
2017-11-26T19:30:43.113Z,86.61
2017-11-26T19:33:12.175Z,85.95
2017-11-26T19:35:40.477Z,85.85
2017-11-26T19:38:09.534Z,85.50
2017-11-26T19:40:37.873Z,85.04
2017-11-26T19:43:06.184Z,84.82
2017-11-26T19:45:34.519Z,85.18
2017-11-26T19:48:02.975Z,85.50
2017-11-26T19:50:31.311Z,85.31
2017-11-26T19:53:00.364Z,84.42
2017-11-26T19:55:28.673Z,84.13
2017-11-26T19:57:57.753Z,84.45
2017-11-26T20:00:26.068Z,84.59
2017-11-26T20:02:55.146Z,84.78
2017-11-26T20:05:23.489Z,84.68
2017-11-26T20:07:51.792Z,84.90
2017-11-26T20:10:20.102Z,84.53
2017-11-26T20:12:48.412Z,84.08
2017-11-26T20:15:17.677Z,83.69
2017-11-26T20:17:45.995Z,82.56
2017-11-26T20:20:14.301Z,81.75
2017-11-26T20:22:42.608Z,81.63
2017-11-26T20:25:10.900Z,81.49
2017-11-26T20:27:39.226Z,81.23
2017-11-26T20:30:07.526Z,81.24
2017-11-26T20:32:35.839Z,81.50
2017-11-26T20:35:05.601Z,81.91
2017-11-26T20:37:33.907Z,81.83
2017-11-26T20:40:02.221Z,81.65
2017-11-26T20:42:31.352Z,81.83
2017-11-26T20:44:59.653Z,81.97
2017-11-26T20:47:28.170Z,81.95
2017-11-26T20:49:56.559Z,81.39
2017-11-26T20:52:25.695Z,80.07
2017-11-26T20:54:54.056Z,79.80
2017-11-26T20:57:22.372Z,79.78
2017-11-26T20:59:51.618Z,79.54
2017-11-26T21:02:20.736Z,79.61
2017-11-26T21:04:49.597Z,79.41
2017-11-26T21:07:17.943Z,79.66
2017-11-26T21:09:46.288Z,79.96
2017-11-26T21:12:14.633Z,80.12
2017-11-26T21:14:42.932Z,80.58
2017-11-26T21:17:12.742Z,80.55
2017-11-26T21:19:41.062Z,80.43
2017-11-26T21:22:10.758Z,80.67
2017-11-26T21:24:39.119Z,80.57
2017-11-26T21:27:07.418Z,80.94
2017-11-26T21:29:35.745Z,81.02
2017-11-26T21:32:04.053Z,80.45
2017-11-26T21:34:32.365Z,81.53
2017-11-26T21:37:00.685Z,82.99
2017-11-26T21:39:28.988Z,84.26
2017-11-26T21:41:57.350Z,85.09
2017-11-26T21:44:25.706Z,85.80
2017-11-26T21:46:54.811Z,86.26
2017-11-26T21:49:23.122Z,86.63
2017-11-26T21:51:52.081Z,86.99
2017-11-26T21:54:21.144Z,87.30
2017-11-26T21:56:49.464Z,87.52
2017-11-26T21:59:17.782Z,87.82
2017-11-26T22:01:46.089Z,87.98
2017-11-26T22:04:14.399Z,88.04
2017-11-26T22:06:43.456Z,88.25
2017-11-26T22:09:11.812Z,88.10
2017-11-26T22:11:40.119Z,88.47
2017-11-26T22:14:08.434Z,88.56
2017-11-26T22:16:37.510Z,88.72
2017-11-26T22:19:07.242Z,88.75
2017-11-26T22:21:36.298Z,88.77
2017-11-26T22:24:04.595Z,88.98
2017-11-26T22:26:33.059Z,88.74
2017-11-26T22:29:01.367Z,88.87
2017-11-26T22:31:29.677Z,89.20
2017-11-26T22:33:58.780Z,89.08
2017-11-26T22:36:27.101Z,89.30
2017-11-26T22:38:55.398Z,89.39
2017-11-26T22:41:23.718Z,89.55
2017-11-26T22:43:52.800Z,89.38
2017-11-26T22:46:21.107Z,89.40
2017-11-26T22:48:49.420Z,89.45
2017-11-26T22:51:17.726Z,89.53
2017-11-26T22:53:46.030Z,89.64
2017-11-26T22:56:15.118Z,89.55
2017-11-26T22:58:44.200Z,89.49
2017-11-26T23:01:12.507Z,89.59
2017-11-26T23:03:41.589Z,89.59
2017-11-26T23:06:10.663Z,89.66
2017-11-26T23:08:38.979Z,89.62
2017-11-26T23:11:07.298Z,89.71
2017-11-26T23:13:35.733Z,89.85
2017-11-26T23:16:04.063Z,89.69
2017-11-26T23:18:32.372Z,89.72
2017-11-26T23:21:00.676Z,89.30
2017-11-26T23:23:29.742Z,89.35
2017-11-26T23:25:58.058Z,89.73
2017-11-26T23:28:26.370Z,89.81
2017-11-26T23:30:54.684Z,89.65
2017-11-26T23:33:22.978Z,89.79
2017-11-26T23:35:51.293Z,89.72
2017-11-26T23:38:20.444Z,89.53
2017-11-26T23:40:48.746Z,89.57
2017-11-26T23:43:17.142Z,89.58
2017-11-26T23:45:45.470Z,89.37
2017-11-26T23:48:13.776Z,89.54
2017-11-26T23:50:42.066Z,89.57
2017-11-26T23:53:10.370Z,89.67
2017-11-26T23:55:38.747Z,89.72
2017-11-26T23:58:08.561Z,89.71
